Time,TemperatureF,DewpointF,PressureIn,WindDirection,WindDirectionDegrees,WindSpeedMPH,WindSpeedGustMPH,Humidity,HourlyPrecipIn,Conditions,Clouds,dailyrainin,SolarRadiationWatts/m^2,SoftwareType,DateUTC
2013-11-20 00:02:00,40.0,40.0,-100.00,NNE,21,0.0,1.0,99,0.13,,,0.37,0.000000,,2013-11-20 08:02:00,
2013-11-20 00:42:00,40.0,40.0,-100.00,NNE,21,0.0,1.0,99,0.13,,,0.37,0.000000,,2013-11-20 08:42:00,
2013-11-20 00:52:00,40.0,40.0,-100.00,NNE,21,0.0,1.0,99,0.13,,,0.37,0.000000,,2013-11-20 08:52:00,
2013-11-20 01:02:00,38.0,37.0,-100.00,NE,34,1.0,3.0,97,0.15,,,0.52,0.000000,,2013-11-20 09:02:00,
2013-11-20 01:43:00,38.0,37.0,-100.00,NE,34,1.0,3.0,97,0.15,,,0.52,0.000000,,2013-11-20 09:43:00,
2013-11-20 01:54:00,38.0,37.0,-100.00,NE,34,1.0,3.0,97,0.15,,,0.52,0.000000,,2013-11-20 09:54:00,
2013-11-20 02:02:00,36.0,35.0,-100.00,ESE,104,0.0,2.0,98,0.12,,,0.64,0.000000,,2013-11-20 10:02:00,
2013-11-20 02:43:00,36.0,35.0,-100.00,ESE,104,0.0,2.0,98,0.12,,,0.64,0.000000,,2013-11-20 10:43:00,
2013-11-20 02:53:00,36.0,35.0,-100.00,ESE,104,0.0,2.0,98,0.12,,,0.64,0.000000,,2013-11-20 10:53:00,
2013-11-20 03:02:00,35.0,34.0,-100.00,NE,41,0.0,3.0,98,0.03,,,0.67,0.000000,,2013-11-20 11:02:00,
2013-11-20 03:43:00,35.0,34.0,-100.00,NE,41,0.0,3.0,98,0.03,,,0.67,0.000000,,2013-11-20 11:43:00,
2013-11-20 03:52:00,35.0,34.0,-100.00,NE,41,0.0,3.0,98,0.03,,,0.67,0.000000,,2013-11-20 11:52:00,
2013-11-20 04:42:00,35.0,35.0,-100.00,NE,40,0.0,3.0,99,0.01,,,0.67,0.000000,,2013-11-20 12:42:00,
2013-11-20 04:52:00,35.0,35.0,-100.00,NE,40,0.0,3.0,99,0.01,,,0.67,0.000000,,2013-11-20 12:52:00,
2013-11-20 05:01:00,35.0,35.0,-100.00,NE,40,0.0,3.0,99,0.01,,,0.67,0.000000,,2013-11-20 13:01:00,
2013-11-20 05:02:00,36.0,36.0,-100.00,ESE,105,0.0,2.0,99,0.02,,,-99.99,0.000000,,2013-11-20 13:02:00,
2013-11-20 05:42:00,36.0,36.0,-100.00,ESE,105,0.0,2.0,99,0.02,,,-99.99,0.000000,,2013-11-20 13:42:00,
2013-11-20 05:52:00,36.0,36.0,-100.00,ESE,105,0.0,2.0,99,0.02,,,-99.99,0.000000,,2013-11-20 13:52:00,
2013-11-20 07:02:00,37.0,37.0,-100.00,ENE,64,0.0,2.0,99,-99.99,,,0.76,0.000000,,2013-11-20 15:02:00,
2013-11-20 07:43:00,37.0,37.0,-100.00,ENE,64,0.0,2.0,99,-99.99,,,0.76,0.000000,,2013-11-20 15:43:00,
2013-11-20 07:53:00,37.0,37.0,-100.00,ENE,64,0.0,2.0,99,-99.99,,,0.76,0.000000,,2013-11-20 15:53:00,
2013-11-20 08:02:00,37.0,37.0,-100.00,ENE,76,0.0,2.0,99,0.09,,,0.85,12.000000,,2013-11-20 16:02:00,
2013-11-20 08:23:00,37.0,37.0,-100.00,ENE,76,0.0,2.0,99,0.09,,,0.85,12.000000,,2013-11-20 16:23:00,
2013-11-20 08:34:00,37.0,37.0,-100.00,ENE,76,0.0,2.0,99,0.09,,,0.85,12.000000,,2013-11-20 16:34:00,
2013-11-20 08:52:00,37.0,37.0,-100.00,ENE,76,0.0,2.0,99,0.09,,,0.85,12.000000,,2013-11-20 16:52:00,
2013-11-20 09:22:00,39.0,39.0,-100.00,ESE,102,0.0,2.0,99,0.03,,,0.88,64.000000,,2013-11-20 17:22:00,
2013-11-20 09:33:00,39.0,39.0,-100.00,ESE,102,0.0,2.0,99,0.03,,,0.88,64.000000,,2013-11-20 17:33:00,
2013-11-20 09:42:00,39.0,39.0,-100.00,ESE,102,0.0,2.0,99,0.03,,,0.88,64.000000,,2013-11-20 17:42:00,
2013-11-20 10:43:00,42.0,40.0,-100.00,SSE,163,0.0,3.0,93,-99.99,,,0.90,134.000000,,2013-11-20 18:43:00,
2013-11-20 10:52:00,42.0,40.0,-100.00,SSE,163,0.0,3.0,93,-99.99,,,0.90,134.000000,,2013-11-20 18:52:00,
2013-11-20 11:01:00,42.0,40.0,-100.00,SSE,163,0.0,3.0,93,-99.99,,,0.90,134.000000,,2013-11-20 19:01:00,
2013-11-20 11:22:00,42.0,41.0,-100.00,WNW,297,0.0,3.0,95,0.06,,,0.96,106.000000,,2013-11-20 19:22:00,
2013-11-20 11:32:00,42.0,41.0,-100.00,WNW,297,0.0,3.0,95,0.06,,,0.96,106.000000,,2013-11-20 19:32:00,
2013-11-20 11:42:00,42.0,41.0,-100.00,WNW,297,0.0,3.0,95,0.06,,,0.96,106.000000,,2013-11-20 19:42:00,
2013-11-20 11:52:00,42.0,41.0,-100.00,WNW,297,0.0,3.0,95,0.06,,,0.96,106.000000,,2013-11-20 19:52:00,
2013-11-20 12:01:00,42.0,41.0,-100.00,WNW,297,0.0,3.0,95,0.06,,,0.96,106.000000,,2013-11-20 20:01:00,
2013-11-20 12:02:00,42.0,41.0,-100.00,NW,308,1.0,3.0,97,0.06,,,1.02,103.000000,,2013-11-20 20:02:00,
2013-11-20 12:22:00,42.0,41.0,-100.00,NW,308,1.0,3.0,97,0.06,,,1.02,103.000000,,2013-11-20 20:22:00,
2013-11-20 12:32:00,42.0,41.0,-100.00,NW,308,1.0,3.0,97,0.06,,,1.02,103.000000,,2013-11-20 20:32:00,
2013-11-20 12:42:00,42.0,41.0,-100.00,NW,308,1.0,3.0,97,0.06,,,1.02,103.000000,,2013-11-20 20:42:00,
2013-11-20 12:52:00,42.0,41.0,-100.00,NW,308,1.0,3.0,97,0.06,,,1.02,103.000000,,2013-11-20 20:52:00,
2013-11-20 13:02:00,43.0,42.0,-100.00,ENE,73,1.0,3.0,95,0.05,,,1.07,104.000000,,2013-11-20 21:02:00,
2013-11-20 13:43:00,43.0,42.0,-100.00,ENE,73,1.0,3.0,95,0.05,,,1.07,104.000000,,2013-11-20 21:43:00,
2013-11-20 13:53:00,43.0,42.0,-100.00,ENE,73,1.0,3.0,95,0.05,,,1.07,104.000000,,2013-11-20 21:53:00,
2013-11-20 14:02:00,43.0,42.0,-100.00,East,95,0.0,3.0,95,0.05,,,1.12,77.000000,,2013-11-20 22:02:00,
2013-11-20 14:42:00,43.0,42.0,-100.00,East,95,0.0,3.0,95,0.05,,,1.12,77.000000,,2013-11-20 22:42:00,
2013-11-20 14:53:00,43.0,42.0,-100.00,East,95,0.0,3.0,95,0.05,,,1.12,77.000000,,2013-11-20 22:53:00,
2013-11-20 15:02:00,42.0,41.0,-100.00,NNW,327,0.0,2.0,97,0.05,,,-99.99,53.000000,,2013-11-20 23:02:00,
2013-11-20 15:43:00,42.0,41.0,-100.00,NNW,327,0.0,2.0,97,0.05,,,-99.99,53.000000,,2013-11-20 23:43:00,
2013-11-20 15:52:00,42.0,41.0,-100.00,NNW,327,0.0,2.0,97,0.05,,,-99.99,53.000000,,2013-11-20 23:52:00,
2013-11-20 16:02:00,40.0,39.0,-100.00,NW,325,1.0,3.0,97,0.04,,,1.21,12.000000,,2013-11-21 00:02:00,
2013-11-20 16:22:00,40.0,39.0,-100.00,NW,325,1.0,3.0,97,0.04,,,1.21,12.000000,,2013-11-21 00:22:00,
2013-11-20 16:32:00,40.0,39.0,-100.00,NW,325,1.0,3.0,97,0.04,,,1.21,12.000000,,2013-11-21 00:32:00,
2013-11-20 16:42:00,40.0,39.0,-100.00,NW,325,1.0,3.0,97,0.04,,,1.21,12.000000,,2013-11-21 00:42:00,
2013-11-20 16:52:00,40.0,39.0,-100.00,NW,325,1.0,3.0,97,0.04,,,1.21,12.000000,,2013-11-21 00:52:00,
2013-11-20 17:42:00,37.0,36.0,-100.00,East,82,1.0,5.0,96,0.16,,,1.37,1.000000,,2013-11-21 01:42:00,
2013-11-20 17:52:00,37.0,36.0,-100.00,East,82,1.0,5.0,96,0.16,,,1.37,1.000000,,2013-11-21 01:52:00,
2013-11-20 18:01:00,37.0,36.0,-100.00,East,82,1.0,5.0,96,0.16,,,1.37,1.000000,,2013-11-21 02:01:00,
2013-11-20 19:22:00,33.0,32.0,-100.00,ENE,78,0.0,3.0,98,-99.99,,,1.54,0.000000,,2013-11-21 03:22:00,
2013-11-20 19:34:00,33.0,32.0,-100.00,ENE,78,0.0,3.0,98,-99.99,,,1.54,0.000000,,2013-11-21 03:34:00,
2013-11-20 19:43:00,33.0,32.0,-100.00,ENE,78,0.0,3.0,98,-99.99,,,1.54,0.000000,,2013-11-21 03:43:00,
2013-11-20 20:02:00,33.0,33.0,-100.00,ESE,111,0.0,1.0,99,-99.99,,,1.58,0.000000,,2013-11-21 04:02:00,
2013-11-20 20:43:00,33.0,33.0,-100.00,ESE,111,0.0,1.0,99,-99.99,,,1.58,0.000000,,2013-11-21 04:43:00,
2013-11-20 20:53:00,33.0,33.0,-100.00,ESE,111,0.0,1.0,99,-99.99,,,1.58,0.000000,,2013-11-21 04:53:00,
2013-11-20 21:02:00,34.0,34.0,-100.00,SE,137,0.0,2.0,99,0.04,,,1.57,0.000000,,2013-11-21 05:02:00,
2013-11-20 21:43:00,34.0,34.0,-100.00,SE,137,0.0,2.0,99,0.04,,,1.57,0.000000,,2013-11-21 05:43:00,
2013-11-20 21:52:00,34.0,34.0,-100.00,SE,137,0.0,2.0,99,0.04,,,1.57,0.000000,,2013-11-21 05:52:00,
2013-11-20 22:02:00,34.0,34.0,-100.00,ESE,120,0.0,2.0,99,0.03,,,1.53,0.000000,,2013-11-21 06:02:00,
2013-11-20 22:43:00,34.0,34.0,-100.00,ESE,120,0.0,2.0,99,0.03,,,1.53,0.000000,,2013-11-21 06:43:00,
2013-11-20 22:52:00,34.0,34.0,-100.00,ESE,120,0.0,2.0,99,0.03,,,1.53,0.000000,,2013-11-21 06:52:00,
2013-11-20 23:42:00,35.0,35.0,-100.00,ESE,107,0.0,2.0,99,0.02,,,1.48,0.000000,,2013-11-21 07:42:00,
2013-11-20 23:52:00,35.0,35.0,-100.00,ESE,107,0.0,2.0,99,0.02,,,1.48,0.000000,,2013-11-21 07:52:00,